Time;durP1;ratioP1;P1;durP2;ratioP2;P2;SDS_P1;SDS_P2;PMS_P1;PMS_P2;Temp;Humidity;BMP_temperature;BMP_pressure;BME280_temperature;BME280_humidity;BME280_pressure;Samples;Min_cycle;Max_cycle;Signal;HPM_P1;HPM_P2
2023/06/18 00:01:22;;;;;;;1.45;0.90;;;;;;;21.77;63.41;98124.34;4975067;28;20494;-73
2023/06/18 00:03:48;;;;;;;1.60;1.10;;;;;;;21.76;63.54;98128.03;4975024;28;20042;-73
2023/06/18 00:06:13;;;;;;;1.42;0.80;;;;;;;21.78;63.70;98127.84;4974475;28;20409;-73
2023/06/18 00:08:39;;;;;;;1.95;1.10;;;;;;;21.77;63.69;98127.00;4976100;28;20457;-73
2023/06/18 00:11:04;;;;;;;2.78;0.93;;;;;;;21.77;63.62;98118.22;4975671;28;20038;-73
2023/06/18 00:13:30;;;;;;;2.00;0.70;;;;;;;21.76;63.61;98130.69;4974581;28;20034;-73
2023/06/18 00:15:55;;;;;;;2.45;1.02;;;;;;;21.76;63.29;98133.34;4975726;28;20031;-74
2023/06/18 00:18:21;;;;;;;2.90;1.08;;;;;;;21.76;63.39;98138.66;4974529;28;20071;-73
2023/06/18 00:20:48;;;;;;;1.60;0.98;;;;;;;21.74;63.56;98139.88;4975554;28;20038;-73
2023/06/18 00:23:14;;;;;;;1.65;1.00;;;;;;;21.73;63.37;98144.38;4974380;28;20027;-73
2023/06/18 00:25:39;;;;;;;2.13;1.08;;;;;;;21.74;63.51;98159.28;4974559;28;20042;-73
2023/06/18 00:28:05;;;;;;;1.40;1.08;;;;;;;21.74;63.41;98151.31;4974276;28;20042;-73
2023/06/18 00:30:31;;;;;;;1.35;0.90;;;;;;;21.73;63.56;98159.50;4974471;28;20034;-73
2023/06/18 00:32:58;;;;;;;1.55;0.82;;;;;;;21.71;63.38;98167.66;4975339;28;20035;-73
2023/06/18 00:35:23;;;;;;;1.30;0.88;;;;;;;21.69;63.24;98161.75;4974190;28;20607;-74
2023/06/18 00:37:49;;;;;;;1.35;0.88;;;;;;;21.68;63.25;98163.59;4975578;28;20062;-73
2023/06/18 00:40:17;;;;;;;2.40;0.98;;;;;;;21.65;63.40;98171.16;4974954;28;20031;-73
2023/06/18 00:42:43;;;;;;;1.85;1.00;;;;;;;21.62;63.35;98164.41;4974101;28;20033;-74
2023/06/18 00:45:09;;;;;;;1.38;0.90;;;;;;;21.63;63.25;98173.16;4974045;28;20030;-74
2023/06/18 00:47:44;;;;;;;2.47;0.90;;;;;;;21.61;63.37;98162.75;4957842;28;20037;-74
2023/06/18 00:50:12;;;;;;;1.38;1.00;;;;;;;21.58;63.45;98168.47;4973522;28;20031;-74
2023/06/18 00:52:37;;;;;;;1.02;0.70;;;;;;;21.59;63.60;98169.31;4957975;28;20045;-73
2023/06/18 00:55:03;;;;;;;1.55;0.90;;;;;;;21.55;63.32;98160.91;4973594;28;20058;-73
2023/06/18 00:57:30;;;;;;;1.70;0.80;;;;;;;21.57;63.55;98168.66;4973984;28;20037;-74
2023/06/18 00:59:56;;;;;;;1.25;0.80;;;;;;;21.58;63.35;98167.66;4973820;28;20046;-73
2023/06/18 01:02:25;;;;;;;1.98;0.80;;;;;;;21.57;63.36;98166.84;4975226;28;20027;-74
2023/06/18 01:04:54;;;;;;;1.10;0.73;;;;;;;21.57;63.40;98176.63;4974798;28;20495;-74
2023/06/18 01:07:21;;;;;;;1.55;0.65;;;;;;;21.56;63.24;98169.69;4975008;28;20030;-74
2023/06/18 01:09:52;;;;;;;1.42;0.90;;;;;;;21.54;63.54;98167.25;4957286;28;20039;-74
2023/06/18 01:12:18;;;;;;;1.38;0.85;;;;;;;21.54;63.20;98161.94;4974829;28;20113;-74
2023/06/18 01:14:50;;;;;;;1.17;0.80;;;;;;;21.53;63.51;98165.59;4973480;28;20459;-74
2023/06/18 01:17:17;;;;;;;3.80;0.90;;;;;;;21.53;63.24;98164.78;4973640;28;20027;-74
2023/06/18 01:19:51;;;;;;;1.42;0.90;;;;;;;21.52;63.40;98171.13;4957576;28;20034;-74
2023/06/18 01:22:26;;;;;;;2.05;0.90;;;;;;;21.52;63.38;98176.41;4973526;28;20038;-74
2023/06/18 01:24:55;;;;;;;1.10;0.70;;;;;;;21.53;63.26;98162.13;4973387;28;20086;-74
2023/06/18 01:27:24;;;;;;;1.60;0.85;;;;;;;21.49;62.86;98169.66;4973523;28;20031;-74
2023/06/18 01:29:52;;;;;;;1.35;0.90;;;;;;;21.53;63.19;98167.44;4957529;28;20125;-74
2023/06/18 01:32:19;;;;;;;2.42;0.80;;;;;;;21.49;63.01;98164.34;4957139;28;20042;-74
2023/06/18 01:34:45;;;;;;;0.95;0.70;;;;;;;21.50;62.98;98174.78;4974224;28;20493;-74
2023/06/18 01:37:48;;;;;;;2.28;0.95;;;;;;;21.49;63.21;98175.81;4972902;28;20035;-74
2023/06/18 01:40:35;;;;;;;1.83;0.88;;;;;;;21.44;63.10;98164.97;4973850;28;20031;-74
2023/06/18 01:43:32;;;;;;;2.05;1.00;;;;;;;21.46;62.87;98181.50;4956874;28;20030;-74
2023/06/18 01:46:06;;;;;;;0.90;0.80;;;;;;;21.43;63.01;98173.94;4973122;28;20532;-74
2023/06/18 01:48:35;;;;;;;1.73;1.10;;;;;;;21.44;63.24;98178.22;4956804;28;20043;-73
2023/06/18 01:51:00;;;;;;;2.08;0.93;;;;;;;21.41;63.21;98181.28;4957021;28;20050;-74
2023/06/18 01:53:26;;;;;;;1.10;0.80;;;;;;;21.44;63.07;98182.69;4972604;28;20050;-73
2023/06/18 01:55:52;;;;;;;1.50;0.80;;;;;;;21.44;62.78;98188.00;4956705;28;20061;-74
2023/06/18 01:58:18;;;;;;;2.00;1.00;;;;;;;21.42;62.96;98190.88;4956377;28;20486;-74
2023/06/18 02:00:43;;;;;;;1.60;1.05;;;;;;;21.43;62.89;98195.16;4972612;28;20118;-74
2023/06/18 02:03:09;;;;;;;0.88;0.73;;;;;;;21.43;62.86;98191.72;4972632;28;20031;-73
2023/06/18 02:05:34;;;;;;;1.52;0.90;;;;;;;21.44;63.10;98203.94;4973750;28;20038;-74
2023/06/18 02:08:00;;;;;;;2.45;0.95;;;;;;;21.41;62.95;98199.88;4972612;28;20050;-74
2023/06/18 02:10:25;;;;;;;1.85;1.00;;;;;;;21.43;62.98;98202.31;4972568;28;20042;-74
2023/06/18 02:12:51;;;;;;;1.88;1.08;;;;;;;21.40;62.75;98190.25;4956326;28;20041;-74
2023/06/18 02:15:16;;;;;;;1.45;0.95;;;;;;;21.44;62.63;98190.66;4972514;28;20070;-74
2023/06/18 02:17:42;;;;;;;1.50;1.10;;;;;;;21.44;62.93;98194.16;4973547;28;20093;-74
2023/06/18 02:20:10;;;;;;;1.50;1.00;;;;;;;21.44;62.62;98194.16;4972243;28;20045;-74
2023/06/18 02:22:36;;;;;;;1.60;1.10;;;;;;;21.45;62.76;98201.09;4972399;28;20425;-74
2023/06/18 02:25:01;;;;;;;2.08;0.95;;;;;;;21.38;62.73;98181.69;4972415;28;20047;-75
2023/06/18 02:27:27;;;;;;;1.38;0.90;;;;;;;21.46;62.81;98200.06;4971961;28;20031;-74
2023/06/18 02:29:52;;;;;;;2.10;1.20;;;;;;;21.48;62.68;98194.56;4972554;28;20154;-74
2023/06/18 02:32:18;;;;;;;1.30;1.10;;;;;;;21.45;62.84;98198.44;4955757;28;20034;-74
2023/06/18 02:34:43;;;;;;;1.48;1.20;;;;;;;21.49;62.50;98196.22;4972311;28;20046;-72
2023/06/18 02:37:09;;;;;;;1.60;1.10;;;;;;;21.51;62.67;98202.16;4972444;28;20042;-73
2023/06/18 02:39:35;;;;;;;1.65;1.10;;;;;;;21.52;62.34;98213.59;4956600;28;20429;-71
2023/06/18 02:42:00;;;;;;;1.52;1.10;;;;;;;21.46;62.28;98202.75;4972165;28;20027;-71
2023/06/18 02:44:28;;;;;;;1.88;1.30;;;;;;;21.53;62.10;98218.72;4956102;28;20045;-71
2023/06/18 02:46:57;;;;;;;1.65;1.13;;;;;;;21.53;62.29;98213.41;4973305;28;20037;-71
2023/06/18 02:49:22;;;;;;;1.67;1.00;;;;;;;21.49;61.94;98209.50;4973461;28;20132;-71
2023/06/18 02:51:48;;;;;;;3.08;1.15;;;;;;;21.50;62.06;98211.94;4956188;28;20479;-71
2023/06/18 02:54:13;;;;;;;1.77;1.27;;;;;;;21.52;62.28;98210.94;4971938;28;20077;-71
2023/06/18 02:56:40;;;;;;;1.33;0.80;;;;;;;21.56;62.33;98215.66;4972060;28;20402;-71
2023/06/18 02:59:05;;;;;;;3.80;1.15;;;;;;;21.56;61.97;98218.31;4972038;28;20030;-71
2023/06/18 03:01:31;;;;;;;3.80;1.20;;;;;;;21.60;61.85;98218.72;4972073;28;20050;-71
2023/06/18 03:03:57;;;;;;;1.90;0.90;;;;;;;21.62;61.71;98224.66;4973381;28;20045;-71
2023/06/18 03:06:23;;;;;;;1.60;1.40;;;;;;;21.66;61.81;98228.53;4955236;28;20066;-71
2023/06/18 03:08:48;;;;;;;1.50;1.10;;;;;;;21.77;61.44;98229.78;4955918;28;20074;-71
2023/06/18 03:11:14;;;;;;;1.52;1.10;;;;;;;21.84;61.24;98235.94;4972091;28;20491;-71
2023/06/18 03:13:39;;;;;;;1.27;1.02;;;;;;;21.88;61.07;98245.13;4971922;28;20031;-71
2023/06/18 03:16:05;;;;;;;1.80;1.20;;;;;;;21.96;60.79;98236.97;4955994;28;20035;-71
2023/06/18 03:18:31;;;;;;;1.73;1.20;;;;;;;21.99;60.76;98239.22;4972082;28;20406;-71
2023/06/18 03:20:56;;;;;;;1.85;1.10;;;;;;;22.09;60.52;98243.31;4971844;28;20027;-71
2023/06/18 03:23:22;;;;;;;1.45;1.02;;;;;;;22.19;60.08;98243.75;4972104;28;20114;-70
2023/06/18 03:25:47;;;;;;;1.65;1.08;;;;;;;22.42;59.65;98246.00;4971796;28;20478;-71
2023/06/18 03:28:13;;;;;;;2.70;1.10;;;;;;;22.80;58.42;98257.84;4971746;28;20027;-70
2023/06/18 03:30:38;;;;;;;1.10;0.85;;;;;;;22.88;58.23;98236.31;4971353;28;20461;-71
2023/06/18 03:33:04;;;;;;;1.30;0.90;;;;;;;22.99;57.75;98242.84;4939356;28;20046;-71
2023/06/18 03:35:30;;;;;;;1.73;1.20;;;;;;;23.11;57.42;98243.88;4973073;28;20027;-71
2023/06/18 03:37:55;;;;;;;1.38;1.02;;;;;;;23.49;56.55;98246.56;4971578;28;20053;-71
2023/06/18 03:40:21;;;;;;;1.33;1.02;;;;;;;24.27;54.83;98249.19;4957148;28;20549;-71
2023/06/18 03:42:46;;;;;;;1.67;1.05;;;;;;;24.97;52.80;98254.31;4974821;28;20391;-71
2023/06/18 03:45:12;;;;;;;2.10;1.25;;;;;;;25.69;51.04;98251.00;4975749;28;20481;-71
2023/06/18 03:47:38;;;;;;;2.33;1.10;;;;;;;26.42;49.24;98264.34;4976031;28;20031;-71
2023/06/18 03:50:04;;;;;;;1.70;1.00;;;;;;;27.07;47.55;98258.88;4958774;28;20046;-71
2023/06/18 03:52:30;;;;;;;1.38;1.02;;;;;;;27.71;46.19;98249.16;4966613;28;20171;-71
2023/06/18 03:54:56;;;;;;;2.55;1.20;;;;;;;28.21;45.03;98236.84;4954773;29;20067;-71
2023/06/18 03:57:21;;;;;;;2.40;1.00;;;;;;;28.26;44.73;98239.63;4955399;29;20498;-71
2023/06/18 03:59:51;;;;;;;1.92;1.08;;;;;;;28.10;45.33;98247.44;4954871;29;20081;-71
2023/06/18 04:02:16;;;;;;;1.38;0.98;;;;;;;28.80;43.92;98255.22;4956607;28;20105;-71
2023/06/18 04:04:42;;;;;;;1.02;0.82;;;;;;;29.19;43.07;98252.53;4955129;29;20043;-71
2023/06/18 04:07:07;;;;;;;1.52;0.88;;;;;;;28.52;44.27;98252.38;4956574;28;20027;-71
2023/06/18 04:09:33;;;;;;;1.98;1.08;;;;;;;28.14;45.24;98255.81;4956214;28;20031;-71
2023/06/18 04:11:58;;;;;;;2.22;1.10;;;;;;;27.83;45.48;98265.16;4954748;29;20031;-71
2023/06/18 04:14:25;;;;;;;1.20;0.90;;;;;;;27.51;45.78;98262.97;4955983;28;20047;-71
2023/06/18 04:16:51;;;;;;;2.38;1.10;;;;;;;27.22;46.35;98274.44;4956159;28;20039;-71
2023/06/18 04:19:17;;;;;;;1.52;1.05;;;;;;;26.96;46.85;98280.31;4939091;29;20486;-71
2023/06/18 04:21:42;;;;;;;1.88;1.10;;;;;;;26.70;47.30;98277.06;4954891;29;20023;-71
2023/06/18 04:24:08;;;;;;;1.63;1.13;;;;;;;26.54;47.81;98275.88;4955712;28;20483;-71
2023/06/18 04:26:33;;;;;;;1.40;1.00;;;;;;;26.34;48.44;98282.34;4956213;28;20495;-71
2023/06/18 04:28:59;;;;;;;1.45;1.05;;;;;;;26.21;48.76;98273.75;4939586;28;20062;-71
2023/06/18 04:31:25;;;;;;;1.77;1.20;;;;;;;26.08;49.21;98275.56;4954803;28;20031;-70
2023/06/18 04:33:50;;;;;;;2.33;1.20;;;;;;;26.01;49.25;98280.19;4955835;28;20027;-70
2023/06/18 04:36:16;;;;;;;2.00;1.27;;;;;;;26.01;49.47;98285.53;4954842;29;20031;-70
2023/06/18 04:38:41;;;;;;;1.58;1.08;;;;;;;26.02;48.98;98278.34;4955830;28;20031;-70
2023/06/18 04:41:07;;;;;;;1.35;1.02;;;;;;;26.04;49.22;98278.91;4955696;28;20031;-70
2023/06/18 04:43:32;;;;;;;1.92;1.10;;;;;;;26.13;49.27;98289.06;4938304;28;20057;-70
2023/06/18 04:45:58;;;;;;;1.10;0.98;;;;;;;26.14;49.29;98289.88;4922895;29;20078;-71
2023/06/18 04:48:23;;;;;;;2.72;1.20;;;;;;;26.21;49.13;98290.59;4954260;29;20039;-71
2023/06/18 04:50:49;;;;;;;1.98;1.10;;;;;;;26.30;48.69;98286.53;4955558;28;20475;-71
2023/06/18 04:53:15;;;;;;;1.73;1.25;;;;;;;26.56;48.35;98295.19;4955656;28;20035;-70
2023/06/18 04:55:41;;;;;;;1.30;1.00;;;;;;;27.56;45.97;98289.88;4954136;28;20062;-70
2023/06/18 04:58:07;;;;;;;2.05;0.98;;;;;;;27.40;46.23;98296.78;4955383;28;20610;-70
2023/06/18 05:00:33;;;;;;;2.65;1.40;;;;;;;27.45;46.13;98291.53;4954608;29;20479;-70
2023/06/18 05:03:01;;;;;;;2.15;1.10;;;;;;;27.42;46.36;98302.72;4955515;28;20027;-71
2023/06/18 05:05:27;;;;;;;1.60;1.10;;;;;;;27.30;46.75;98301.94;4954259;29;20090;-71
2023/06/18 05:07:53;;;;;;;1.40;1.00;;;;;;;27.21;46.62;98309.50;4938324;29;20086;-71
2023/06/18 05:10:19;;;;;;;3.58;1.20;;;;;;;27.11;47.01;98304.75;4955856;28;20027;-70
2023/06/18 05:12:45;;;;;;;2.95;1.13;;;;;;;27.01;47.11;98304.50;4954092;29;20030;-71
2023/06/18 05:15:10;;;;;;;1.75;1.20;;;;;;;26.98;47.45;98313.84;4954114;29;20031;-71
2023/06/18 05:17:36;;;;;;;2.25;1.20;;;;;;;26.94;47.00;98320.72;4954229;29;20042;-70
2023/06/18 05:20:03;;;;;;;2.67;1.10;;;;;;;26.92;47.10;98313.97;4955335;28;20039;-73
2023/06/18 05:22:28;;;;;;;1.77;1.20;;;;;;;26.96;47.03;98317.78;4938615;29;20031;-71
2023/06/18 05:24:55;;;;;;;1.77;1.25;;;;;;;27.02;47.13;98319.53;4953941;29;20109;-71
2023/06/18 05:27:20;;;;;;;1.23;1.08;;;;;;;27.85;45.21;98311.31;4954162;28;20434;-72
2023/06/18 05:29:46;;;;;;;1.77;1.13;;;;;;;27.95;45.07;98320.41;4937911;29;20031;-71
2023/06/18 05:32:11;;;;;;;1.98;1.15;;;;;;;27.74;45.60;98321.06;4953767;29;20027;-73
2023/06/18 05:34:36;;;;;;;1.73;1.10;;;;;;;27.87;45.16;98333.38;4955063;28;20125;-71
2023/06/18 05:37:02;;;;;;;1.52;1.30;;;;;;;28.04;45.13;98334.25;4953576;29;20086;-73
2023/06/18 05:39:28;;;;;;;2.08;1.30;;;;;;;28.16;45.03;98336.88;4921964;29;20491;-71
2023/06/18 05:41:54;;;;;;;2.20;1.38;;;;;;;29.66;42.01;98343.41;4954813;28;20038;-70
2023/06/18 05:44:19;;;;;;;1.83;1.42;;;;;;;30.40;40.97;98331.31;4954744;28;20035;-71
2023/06/18 05:46:45;;;;;;;2.15;1.45;;;;;;;30.47;40.86;98348.06;4937566;29;20622;-71
2023/06/18 05:49:10;;;;;;;4.25;1.50;;;;;;;30.40;40.79;98343.97;4954602;28;20035;-72
2023/06/18 05:51:36;;;;;;;3.15;1.40;;;;;;;30.77;40.27;98349.34;4953538;29;20035;-71
2023/06/18 05:54:02;;;;;;;2.42;1.25;;;;;;;31.15;39.44;98355.59;4953375;29;20089;-70
2023/06/18 05:56:27;;;;;;;1.65;1.15;;;;;;;31.14;39.44;98359.34;4953018;28;20039;-70
2023/06/18 05:58:53;;;;;;;1.88;1.20;;;;;;;32.71;36.42;98352.28;4953574;29;20039;-71
2023/06/18 06:01:18;;;;;;;1.50;1.00;;;;;;;32.20;37.15;98353.06;4953667;28;20031;-71
2023/06/18 06:03:44;;;;;;;1.52;1.02;;;;;;;32.06;37.12;98361.63;4953225;28;20035;-70
2023/06/18 06:06:09;;;;;;;2.13;1.27;;;;;;;32.10;37.29;98364.63;4953263;29;20031;-71
2023/06/18 06:08:35;;;;;;;2.15;1.20;;;;;;;32.08;36.88;98353.25;4937131;29;20414;-71
2023/06/18 06:11:01;;;;;;;1.70;1.20;;;;;;;32.10;37.07;98353.81;4936960;29;20065;-71
2023/06/18 06:13:26;;;;;;;1.40;1.10;;;;;;;32.04;37.12;98357.56;4953545;29;20023;-72
2023/06/18 06:15:52;;;;;;;1.50;1.05;;;;;;;32.03;37.13;98356.75;4953401;29;20035;-71
2023/06/18 06:18:17;;;;;;;2.30;1.38;;;;;;;32.13;36.75;98358.69;4953221;29;20027;-71
2023/06/18 06:20:43;;;;;;;1.80;1.20;;;;;;;32.22;36.95;98358.97;4954245;28;20403;-70
2023/06/18 06:23:08;;;;;;;2.88;1.10;;;;;;;32.33;36.46;98357.09;4937102;29;20031;-70
2023/06/18 06:25:34;;;;;;;1.52;1.10;;;;;;;32.36;36.62;98365.47;4952646;29;20042;-71
2023/06/18 06:27:59;;;;;;;1.60;1.02;;;;;;;32.63;36.09;98362.53;4936829;29;20050;-71
2023/06/18 06:30:25;;;;;;;2.08;1.30;;;;;;;32.86;35.63;98362.25;4953087;28;20487;-70
2023/06/18 06:32:51;;;;;;;2.58;1.27;;;;;;;33.18;35.50;98370.88;4952995;29;20066;-72
2023/06/18 06:35:16;;;;;;;6.38;1.23;;;;;;;33.17;34.85;98357.59;4953111;29;20090;-76
2023/06/18 06:37:42;;;;;;;9.10;1.35;;;;;;;33.17;34.32;98365.72;4921203;29;20473;-73
2023/06/18 06:40:09;;;;;;;26.95;1.77;;;;;;;33.10;32.47;98363.31;4921257;28;20541;-69
2023/06/18 06:42:35;;;;;;;25.52;6.30;;;;;;;32.92;32.23;98374.69;4954417;28;20039;-68
2023/06/18 06:45:01;;;;;;;10.80;6.30;;;;;;;32.99;31.97;98364.41;4954061;28;20031;-68
2023/06/18 06:47:27;;;;;;;18.50;4.68;;;;;;;33.26;31.35;98363.31;4953499;28;20200;-71
2023/06/18 06:49:52;;;;;;;15.63;5.78;;;;;;;34.02;30.30;98370.28;4952563;29;20057;-73
2023/06/18 06:52:18;;;;;;;5.10;2.33;;;;;;;34.72;29.39;98358.41;4936884;29;20480;-74
2023/06/18 06:54:43;;;;;;;20.50;2.10;;;;;;;34.50;29.91;98366.19;4936209;28;20059;-75
2023/06/18 06:57:09;;;;;;;18.13;2.70;;;;;;;34.44;30.25;98360.00;4937186;29;20078;-74
2023/06/18 06:59:34;;;;;;;5.55;1.80;;;;;;;34.50;29.70;98364.28;4936573;29;20467;-73
2023/06/18 07:02:00;;;;;;;9.50;2.53;;;;;;;34.37;29.92;98363.03;4953619;28;20055;-72
2023/06/18 07:04:26;;;;;;;31.77;2.60;;;;;;;34.90;29.46;98361.53;4952752;29;20035;-73
2023/06/18 07:06:52;;;;;;;7.20;2.17;;;;;;;35.65;28.37;98369.13;4953709;28;20063;-72
2023/06/18 07:09:18;;;;;;;13.55;2.47;;;;;;;36.20;27.88;98373.31;4936554;29;20078;-73
2023/06/18 07:11:43;;;;;;;14.18;2.40;;;;;;;36.60;27.35;98367.56;4952694;28;20047;-74
2023/06/18 07:14:09;;;;;;;7.80;2.22;;;;;;;36.84;26.77;98368.22;4952814;28;20047;-74
2023/06/18 07:16:35;;;;;;;10.93;2.72;;;;;;;37.28;25.85;98377.00;4940308;29;20473;-74
2023/06/18 07:19:01;;;;;;;7.82;2.17;;;;;;;37.58;25.58;98375.56;4956288;29;20515;-75
2023/06/18 07:21:27;;;;;;;5.18;2.03;;;;;;;37.85;25.50;98382.09;4940466;29;20097;-76
2023/06/18 07:23:52;;;;;;;6.28;1.85;;;;;;;37.99;24.87;98390.25;4956213;28;20039;-76
2023/06/18 07:26:18;;;;;;;4.25;2.25;;;;;;;38.09;24.55;98386.50;4940727;29;20047;-76
2023/06/18 07:28:43;;;;;;;5.43;1.73;;;;;;;38.09;25.17;98389.22;4940230;29;20106;-73
2023/06/18 07:31:08;;;;;;;7.25;2.17;;;;;;;37.95;25.69;98387.31;4956835;28;20503;-74
2023/06/18 07:33:34;;;;;;;4.53;1.90;;;;;;;38.08;25.55;98385.69;4956935;28;20047;-75
2023/06/18 07:35:59;;;;;;;9.77;2.83;;;;;;;38.28;25.59;98389.88;4939895;29;20581;-74
2023/06/18 07:38:25;;;;;;;10.55;1.90;;;;;;;38.44;25.01;98395.75;4957012;28;20483;-75
2023/06/18 07:40:51;;;;;;;9.88;1.90;;;;;;;38.18;25.18;98390.94;4940083;29;20114;-72
2023/06/18 07:43:17;;;;;;;5.30;1.80;;;;;;;37.78;25.51;98387.97;4939782;29;20118;-75
2023/06/18 07:45:42;;;;;;;12.38;1.98;;;;;;;37.27;26.39;98392.53;4955798;28;20459;-75
2023/06/18 07:48:08;;;;;;;4.50;1.58;;;;;;;37.39;26.79;98394.72;4955648;29;20035;-82
2023/06/18 07:50:34;;;;;;;7.15;1.80;;;;;;;37.16;27.36;98401.13;4939472;29;20038;-76
2023/06/18 07:53:00;;;;;;;28.17;2.13;;;;;;;37.24;27.32;98395.00;4955263;29;20192;-76
2023/06/18 07:55:25;;;;;;;11.05;1.90;;;;;;;37.33;26.86;98404.09;4955363;29;20055;-79
2023/06/18 07:57:51;;;;;;;10.90;1.80;;;;;;;37.22;27.00;98403.47;4955678;29;20043;-75
2023/06/18 08:00:16;;;;;;;8.10;1.77;;;;;;;37.05;26.51;98404.06;4955529;28;20423;-81
2023/06/18 08:02:42;;;;;;;5.95;1.50;;;;;;;36.91;26.42;98401.31;4939652;29;20444;-80
2023/06/18 08:05:08;;;;;;;6.75;2.17;;;;;;;36.88;26.73;98409.22;4956422;28;20081;-79
2023/06/18 08:07:34;;;;;;;7.70;1.80;;;;;;;36.78;26.48;98406.69;4955543;28;20462;-77
2023/06/18 08:09:59;;;;;;;10.10;2.13;;;;;;;36.70;26.52;98400.78;4955794;28;20075;-75
2023/06/18 08:12:25;;;;;;;3.92;2.00;;;;;;;36.61;26.62;98407.22;4955008;29;20054;-75
2023/06/18 08:14:50;;;;;;;8.88;2.35;;;;;;;36.54;26.57;98408.41;4955031;29;20483;-78
2023/06/18 08:17:17;;;;;;;8.30;2.15;;;;;;;36.49;26.84;98404.97;4925250;29;20062;-79
2023/06/18 08:19:46;;;;;;;5.00;1.80;;;;;;;36.52;26.63;98421.47;4955579;29;20050;-80
2023/06/18 08:22:12;;;;;;;4.60;1.80;;;;;;;36.44;27.40;98411.28;4938472;28;20043;-76
2023/06/18 08:24:37;;;;;;;6.20;2.00;;;;;;;36.48;27.39;98409.56;4956390;28;20027;-79
2023/06/18 08:27:03;;;;;;;5.30;1.75;;;;;;;36.67;27.60;98416.91;4954494;28;20818;-76
2023/06/18 08:29:29;;;;;;;3.40;1.60;;;;;;;36.80;27.56;98410.75;4956068;28;20035;-77
2023/06/18 08:31:55;;;;;;;5.93;1.70;;;;;;;36.99;27.56;98409.84;4938640;29;20506;-77
2023/06/18 08:34:20;;;;;;;2.67;1.80;;;;;;;36.78;27.64;98415.66;4954842;29;20046;-75
2023/06/18 08:36:47;;;;;;;4.13;1.90;;;;;;;36.35;28.30;98423.91;4938703;28;20039;-78
2023/06/18 08:39:15;;;;;;;6.88;2.13;;;;;;;36.04;28.73;98417.00;4923199;29;20058;-75
2023/06/18 08:41:43;;;;;;;4.50;2.05;;;;;;;35.67;29.44;98420.41;4954641;29;20077;-77
2023/06/18 08:44:09;;;;;;;6.97;1.60;;;;;;;35.23;30.22;98419.50;4954686;29;20049;-75
2023/06/18 08:46:35;;;;;;;5.03;1.95;;;;;;;35.15;30.32;98420.13;4954752;28;20031;-75
2023/06/18 08:49:02;;;;;;;5.53;2.03;;;;;;;34.75;30.89;98425.66;4922932;29;20109;-76
2023/06/18 08:51:27;;;;;;;9.75;1.90;;;;;;;34.80;30.98;98413.94;4939030;28;20844;-75
2023/06/18 08:54:03;;;;;;;6.97;1.98;;;;;;;34.87;30.66;98413.63;4954322;29;20047;-76
2023/06/18 08:56:28;;;;;;;6.03;1.90;;;;;;;34.91;30.85;98411.97;4954114;29;20039;-77
2023/06/18 08:58:58;;;;;;;4.47;2.00;;;;;;;34.89;30.73;98408.75;4938463;29;20046;-77
2023/06/18 09:01:27;;;;;;;4.93;1.90;;;;;;;34.92;30.86;98421.72;4954235;29;20031;-76
2023/06/18 09:03:53;;;;;;;6.72;2.30;;;;;;;34.97;30.90;98414.34;4953548;29;20054;-76
2023/06/18 09:06:19;;;;;;;4.85;1.85;;;;;;;35.01;30.83;98414.56;4937652;29;20043;-73
2023/06/18 09:08:46;;;;;;;4.13;1.80;;;;;;;35.02;30.79;98405.34;4954290;29;20109;-76
2023/06/18 09:11:11;;;;;;;11.55;1.90;;;;;;;34.98;31.10;98409.72;4938689;29;20027;-77
2023/06/18 09:13:40;;;;;;;13.93;1.60;;;;;;;34.93;30.97;98410.59;4955261;28;20493;-75
2023/06/18 09:16:06;;;;;;;8.27;1.80;;;;;;;34.92;30.43;98408.97;4954236;29;20510;-76
2023/06/18 09:18:31;;;;;;;9.98;1.67;;;;;;;34.96;30.47;98414.63;4953643;28;20077;-75
2023/06/18 09:20:57;;;;;;;12.00;1.92;;;;;;;34.99;30.60;98407.81;4955513;28;20027;-76
2023/06/18 09:23:22;;;;;;;18.58;1.70;;;;;;;34.99;30.49;98413.25;4954784;28;20040;-75
2023/06/18 09:25:54;;;;;;;7.65;1.80;;;;;;;34.99;30.40;98421.38;4953832;29;20039;-76
2023/06/18 09:28:20;;;;;;;6.50;1.70;;;;;;;34.95;30.73;98413.03;4937419;29;20466;-78
2023/06/18 09:30:57;;;;;;;6.53;1.90;;;;;;;34.93;30.74;98417.91;4954976;28;20062;-75
2023/06/18 09:33:33;;;;;;;6.05;1.52;;;;;;;34.92;30.80;98410.88;4954219;29;20062;-75
2023/06/18 09:36:02;;;;;;;9.55;2.17;;;;;;;34.89;31.25;98412.25;4952720;29;20039;-74
2023/06/18 09:38:35;;;;;;;6.90;1.67;;;;;;;34.84;31.39;98414.19;4953697;28;20086;-74
2023/06/18 09:41:01;;;;;;;4.78;1.73;;;;;;;34.83;31.68;98415.28;4953367;29;20050;-76
2023/06/18 09:43:37;;;;;;;6.65;1.63;;;;;;;34.82;31.70;98416.38;4953516;29;20106;-74
2023/06/18 09:46:06;;;;;;;4.72;1.55;;;;;;;34.77;31.79;98406.38;4953602;29;20034;-75
2023/06/18 09:48:35;;;;;;;5.43;1.70;;;;;;;34.74;31.84;98410.50;4953431;29;20046;-76
2023/06/18 09:51:01;;;;;;;5.60;1.42;;;;;;;34.70;31.62;98411.31;4953395;29;20447;-75
2023/06/18 09:53:26;;;;;;;3.03;1.63;;;;;;;34.66;32.19;98410.25;4954747;28;20031;-75
2023/06/18 09:55:52;;;;;;;7.53;1.83;;;;;;;34.63;31.92;98394.53;4954203;29;20114;-74
2023/06/18 09:58:17;;;;;;;2.15;1.42;;;;;;;34.57;31.85;98394.59;4953388;29;20475;-76
2023/06/18 10:01:00;;;;;;;5.28;1.42;;;;;;;34.51;31.97;98401.16;4954700;28;20045;-76
2023/06/18 10:03:26;;;;;;;3.05;1.15;;;;;;;34.46;32.34;98397.66;4939810;29;20031;-76
2023/06/18 10:05:51;;;;;;;3.63;1.52;;;;;;;34.45;32.21;98398.75;4954298;28;20046;-75
2023/06/18 10:08:17;;;;;;;4.45;1.50;;;;;;;34.44;32.47;98397.94;4953047;29;20038;-79
2023/06/18 10:10:42;;;;;;;5.82;1.60;;;;;;;34.40;32.67;98395.00;4937232;29;20042;-75
2023/06/18 10:13:10;;;;;;;5.53;1.52;;;;;;;34.35;32.33;98386.06;4937518;29;20031;-75
2023/06/18 10:15:36;;;;;;;12.25;1.80;;;;;;;34.28;32.36;98391.00;4953257;29;20031;-75
2023/06/18 10:18:01;;;;;;;2.65;1.30;;;;;;;34.12;32.60;98392.97;4937142;29;20027;-75
2023/06/18 10:20:27;;;;;;;5.65;1.50;;;;;;;34.05;32.96;98388.69;4937074;29;20403;-76
2023/06/18 10:22:55;;;;;;;5.47;1.67;;;;;;;33.95;32.88;98386.00;4937016;29;20538;-77
2023/06/18 10:25:20;;;;;;;4.22;1.60;;;;;;;33.87;32.87;98389.31;4952974;29;20059;-74
2023/06/18 10:27:46;;;;;;;5.65;1.58;;;;;;;33.79;33.18;98381.78;4937116;29;20070;-75
2023/06/18 10:30:12;;;;;;;3.22;1.50;;;;;;;33.67;33.28;98373.97;4936905;29;20399;-75
2023/06/18 10:32:37;;;;;;;4.88;1.60;;;;;;;33.59;33.46;98372.66;4952729;29;20050;-75
2023/06/18 10:35:07;;;;;;;3.63;1.50;;;;;;;33.48;33.90;98368.38;4952797;29;20035;-74
2023/06/18 10:37:34;;;;;;;2.38;1.50;;;;;;;33.42;33.94;98375.69;4953753;28;20031;-74
2023/06/18 10:39:59;;;;;;;3.42;1.58;;;;;;;33.33;33.90;98370.00;4952763;29;20039;-75
2023/06/18 10:42:25;;;;;;;4.82;1.77;;;;;;;33.26;33.81;98368.72;4952661;29;20549;-75
2023/06/18 10:44:53;;;;;;;2.53;1.50;;;;;;;33.15;34.01;98357.06;4954331;28;20074;-74
2023/06/18 10:47:23;;;;;;;2.25;1.50;;;;;;;33.11;34.00;98358.69;4937050;29;20454;-75
2023/06/18 10:50:01;;;;;;;5.72;1.60;;;;;;;33.02;34.55;98355.75;4955392;28;20038;-75
2023/06/18 10:52:29;;;;;;;2.72;1.40;;;;;;;32.93;34.19;98352.78;4956143;28;20030;-75
2023/06/18 10:54:55;;;;;;;3.78;1.65;;;;;;;32.83;34.07;98366.31;4956357;29;20395;-73
2023/06/18 10:57:28;;;;;;;4.60;1.75;;;;;;;32.77;34.33;98362.00;4924858;29;20055;-76
2023/06/18 10:59:56;;;;;;;2.95;1.50;;;;;;;32.69;34.18;98355.25;4956953;29;20051;-76
2023/06/18 11:02:39;;;;;;;3.95;1.80;;;;;;;32.58;34.40;98348.22;4924841;29;20046;-75
2023/06/18 11:05:05;;;;;;;3.80;1.60;;;;;;;32.49;34.41;98347.13;4942272;29;20051;-75
2023/06/18 11:07:31;;;;;;;5.30;1.60;;;;;;;32.43;34.17;98346.28;4940621;29;20074;-75
2023/06/18 11:09:58;;;;;;;5.05;1.75;;;;;;;32.33;34.52;98347.09;4940526;29;20046;-75
2023/06/18 11:12:33;;;;;;;3.13;1.50;;;;;;;32.30;35.08;98350.34;4940053;29;20501;-70
2023/06/18 11:15:17;;;;;;;3.50;1.73;;;;;;;32.17;34.45;98340.09;4940575;29;20710;-72
2023/06/18 11:17:53;;;;;;;4.28;1.65;;;;;;;32.04;34.68;98342.19;4957409;28;20062;-69
2023/06/18 11:20:22;;;;;;;7.68;1.77;;;;;;;32.02;34.44;98335.44;4956082;29;20098;-68
2023/06/18 11:22:48;;;;;;;3.42;1.83;;;;;;;31.80;34.53;98341.03;4957688;28;20027;-68
2023/06/18 11:25:14;;;;;;;7.18;1.80;;;;;;;31.78;34.57;98343.19;4955481;29;20041;-70
2023/06/18 11:27:41;;;;;;;2.83;1.70;;;;;;;31.77;34.84;98336.19;4956264;28;20443;-68
2023/06/18 11:30:08;;;;;;;7.10;2.08;;;;;;;31.60;35.50;98334.50;4955181;29;20031;-69